Tuesday, January 15, 2019, 7:28 PM EST
Back to Local

KMVL, Morrisville Stowe State Airport

Location: Morrisville, VT, United States Lat: 44.533
Local Time: 7:28 PM EST ( 0:28 GMT) Lon: -72.617
Time Zone: US/Eastern Elev: 731 ft

Show me the last for .
Show Decoded

2019-01-15 18:54 METAR KMVL 152354Z AUTO 19003KT 4SM -SN BR OVC030 M06/M06 A3003 RMK AO2 SNB44
                 SLP183 P0000 60000 T10561061 11044 21056 58002 =
2019-01-15 17:54 METAR KMVL 152254Z AUTO 00000KT 10SM BKN031 OVC044 M05/M07 A3003 RMK AO2 SLP185
                 T10501067 =
2019-01-15 16:54 METAR KMVL 152154Z AUTO 00000KT 10SM OVC028 M04/M07 A3003 RMK AO2 SLP186
                 T10441067 =
2019-01-15 15:54 METAR KMVL 152054Z AUTO 00000KT 10SM OVC028 M04/M07 A3003 RMK AO2 SLP186
                 T10441067 58005 =
2019-01-15 14:54 METAR KMVL 151954Z AUTO 01004KT 10SM OVC025 M04/M07 A3004 RMK AO2 SLP190
                 T10441072 =
2019-01-15 13:54 METAR KMVL 151854Z AUTO 36004KT 10SM OVC023 M04/M07 A3004 RMK AO2 SLP191
                 T10441072 =
2019-01-15 12:54 METAR KMVL 151754Z AUTO 34003KT 10SM OVC019 M05/M08 A3005 RMK AO2 SLP193 60000
                 T10501078 11050 21128 58022 =
2019-01-15 11:54 METAR KMVL 151654Z AUTO 00000KT 10SM OVC024 M06/M08 A3007 RMK AO2 SNE17 SLP200
                 P0000 T10611083 =
2019-01-15 10:54 METAR KMVL 151554Z AUTO 00000KT 4SM -SN BR OVC023 M08/M10 A3010 RMK AO2 SNB21
                 SLP211 P0000 T10831100 =
2019-01-15 10:35 METAR KMVL 151535Z AUTO 00000KT 2SM -SN BR FEW008 BKN021 OVC033 M09/M10 A3011
                 RMK AO2 SNB21 P0000 T10941100 =
2019-01-15 10:10 METAR KMVL 151510Z AUTO 00000KT 5SM BR SCT008 OVC016 M10/M11 A3012 RMK AO2
                 T11001111 =
2019-01-15 09:54 METAR KMVL 151454Z AUTO 00000KT 8SM FEW010 OVC017 M10/M12 A3012 RMK AO2 SLP217
                 T11001117 53011 =
2019-01-15 08:54 METAR KMVL 151354Z AUTO 00000KT 6SM BR OVC016 M11/M13 A3010 RMK AO2 SLP212
                 T11111128 =
2019-01-15 08:38 METAR KMVL 151338Z AUTO 00000KT 6SM BR OVC015 M12/M13 A3009 RMK AO2 T11171133 =
2019-01-15 08:08 METAR KMVL 151308Z AUTO 00000KT 9SM OVC014 M12/M13 A3009 RMK AO2 T11221133 =
2019-01-15 07:54 METAR KMVL 151254Z AUTO 04003KT 10SM OVC015 M12/M14 A3009 RMK AO2 SLP208
                 T11221139 =
2019-01-15 06:54 METAR KMVL 151154Z AUTO 00000KT 10SM OVC015 M13/M14 A3008 RMK AO2 SLP206 60000
                 T11281139 11128 21194 55000 =
2019-01-15 05:54 METAR KMVL 151054Z AUTO 00000KT 10SM OVC015 M14/M15 A3009 RMK AO2 SLP206
                 T11391150 =
2019-01-15 04:54 METAR KMVL 150954Z AUTO 00000KT 8SM OVC019 M14/M16 A3008 RMK AO2 SNB01E19 SLP203
                 P0000 T11441161 =
2019-01-15 03:54 METAR KMVL 150854Z AUTO 19004KT 7SM OVC022 M16/M17 A3008 RMK AO2 SLP205
                 T11611172 58007 =
2019-01-15 02:54 METAR KMVL 150754Z AUTO 00000KT 7SM OVC025 M17/M19 A3010 RMK AO2 SLP212
                 T11721189 =
2019-01-15 02:23 METAR KMVL 150723Z AUTO 00000KT 10SM BKN022 M19/M21 A3011 RMK AO2 T11891206 =
2019-01-15 01:54 METAR KMVL 150654Z AUTO 00000KT 9SM CLR M19/M21 A3011 RMK AO2 SLP216 T11891206 =
2019-01-15 00:54 METAR KMVL 150554Z AUTO 21003KT 9SM CLR M19/M21 A3011 RMK AO2 SLP214 I6000
                 T11891206 11150 21200 58009 =
2019-01-14 23:54 METAR KMVL 150454Z AUTO 00000KT 10SM CLR M19/M21 A3012 RMK AO2 SLP218 T11891206
                 410831272 =
2019-01-14 22:54 METAR KMVL 150354Z AUTO 00000KT 10SM CLR M19/M20 A3014 RMK AO2 SLP228 T11891200
                 =
2019-01-14 21:54 METAR KMVL 150254Z AUTO 00000KT 10SM CLR M17/M19 A3013 RMK AO2 SLP227 I3000
                 T11721194 55005 =
2019-01-14 20:54 METAR KMVL 150154Z AUTO 00000KT 10SM CLR M17/M19 A3013 RMK AO2 SLP228 I1000
                 T11721189 =
2019-01-14 19:54 METAR KMVL 150054Z AUTO 00000KT 10SM CLR M16/M17 A3014 RMK AO2 SLP229 T11561172
                 =

Support USWX by starting your Amazon purchase here.